sensor_id;sensor_type;location;lat;lon;timestamp;P1;durP1;ratioP1;P2;durP2;ratioP2
10309;SDS011;5200;43.236;27.986;2023-05-10T00:01:00;5.38;;;3.10;;
10309;SDS011;5200;43.236;27.986;2023-05-10T00:03:27;3.53;;;3.22;;
10309;SDS011;5200;43.236;27.986;2023-05-10T00:05:55;3.25;;;2.97;;
10309;SDS011;5200;43.236;27.986;2023-05-10T00:08:22;4.40;;;3.40;;
10309;SDS011;5200;43.236;27.986;2023-05-10T00:10:49;5.00;;;3.30;;
10309;SDS011;5200;43.236;27.986;2023-05-10T00:13:16;9.03;;;3.67;;
10309;SDS011;5200;43.236;27.986;2023-05-10T00:15:43;3.42;;;3.13;;
10309;SDS011;5200;43.236;27.986;2023-05-10T00:18:10;4.80;;;3.47;;
10309;SDS011;5200;43.236;27.986;2023-05-10T00:20:37;4.20;;;3.47;;
10309;SDS011;5200;43.236;27.986;2023-05-10T00:23:05;5.30;;;3.28;;
10309;SDS011;5200;43.236;27.986;2023-05-10T00:25:32;4.60;;;3.50;;
10309;SDS011;5200;43.236;27.986;2023-05-10T00:27:59;3.23;;;2.93;;
10309;SDS011;5200;43.236;27.986;2023-05-10T00:30:26;8.65;;;3.53;;
10309;SDS011;5200;43.236;27.986;2023-05-10T00:32:53;3.53;;;3.22;;
10309;SDS011;5200;43.236;27.986;2023-05-10T00:35:20;6.00;;;3.78;;
10309;SDS011;5200;43.236;27.986;2023-05-10T00:37:47;6.53;;;3.15;;
10309;SDS011;5200;43.236;27.986;2023-05-10T00:40:16;5.18;;;3.33;;
10309;SDS011;5200;43.236;27.986;2023-05-10T00:42:43;7.82;;;2.95;;
10309;SDS011;5200;43.236;27.986;2023-05-10T00:45:10;5.53;;;3.85;;
10309;SDS011;5200;43.236;27.986;2023-05-10T00:47:39;4.25;;;3.65;;
10309;SDS011;5200;43.236;27.986;2023-05-10T00:50:06;3.60;;;3.30;;
10309;SDS011;5200;43.236;27.986;2023-05-10T00:52:34;6.40;;;3.28;;
10309;SDS011;5200;43.236;27.986;2023-05-10T00:55:01;6.47;;;3.37;;
10309;SDS011;5200;43.236;27.986;2023-05-10T00:57:30;4.20;;;3.30;;
10309;SDS011;5200;43.236;27.986;2023-05-10T00:59:57;4.10;;;3.17;;
10309;SDS011;5200;43.236;27.986;2023-05-10T01:02:25;3.33;;;3.03;;
10309;SDS011;5200;43.236;27.986;2023-05-10T01:04:52;7.72;;;4.35;;
10309;SDS011;5200;43.236;27.986;2023-05-10T01:07:19;5.10;;;3.92;;
10309;SDS011;5200;43.236;27.986;2023-05-10T01:09:46;4.28;;;3.35;;
10309;SDS011;5200;43.236;27.986;2023-05-10T01:12:13;5.15;;;4.00;;
10309;SDS011;5200;43.236;27.986;2023-05-10T01:14:41;3.55;;;3.22;;
10309;SDS011;5200;43.236;27.986;2023-05-10T01:17:09;5.80;;;4.00;;
10309;SDS011;5200;43.236;27.986;2023-05-10T01:19:37;6.03;;;4.43;;
10309;SDS011;5200;43.236;27.986;2023-05-10T01:22:06;9.63;;;4.15;;
10309;SDS011;5200;43.236;27.986;2023-05-10T01:24:56;5.00;;;4.30;;
10309;SDS011;5200;43.236;27.986;2023-05-10T01:27:47;5.78;;;4.22;;
10309;SDS011;5200;43.236;27.986;2023-05-10T01:30:33;6.80;;;4.60;;
10309;SDS011;5200;43.236;27.986;2023-05-10T01:33:15;4.40;;;3.60;;
10309;SDS011;5200;43.236;27.986;2023-05-10T01:35:47;6.07;;;4.23;;
10309;SDS011;5200;43.236;27.986;2023-05-10T01:38:21;5.82;;;4.53;;
10309;SDS011;5200;43.236;27.986;2023-05-10T01:40:58;7.57;;;4.57;;
10309;SDS011;5200;43.236;27.986;2023-05-10T01:43:33;7.03;;;4.10;;
10309;SDS011;5200;43.236;27.986;2023-05-10T01:46:09;9.65;;;5.18;;
10309;SDS011;5200;43.236;27.986;2023-05-10T01:48:46;6.97;;;4.45;;
10309;SDS011;5200;43.236;27.986;2023-05-10T01:51:15;8.90;;;4.37;;
10309;SDS011;5200;43.236;27.986;2023-05-10T01:53:46;6.23;;;4.37;;
10309;SDS011;5200;43.236;27.986;2023-05-10T01:56:15;9.70;;;4.50;;
10309;SDS011;5200;43.236;27.986;2023-05-10T01:58:43;8.57;;;4.68;;
10309;SDS011;5200;43.236;27.986;2023-05-10T02:01:13;7.10;;;4.82;;
10309;SDS011;5200;43.236;27.986;2023-05-10T02:03:42;6.75;;;5.38;;
10309;SDS011;5200;43.236;27.986;2023-05-10T02:06:11;6.90;;;5.00;;
10309;SDS011;5200;43.236;27.986;2023-05-10T02:08:41;6.50;;;4.72;;
10309;SDS011;5200;43.236;27.986;2023-05-10T02:11:10;8.10;;;4.30;;
10309;SDS011;5200;43.236;27.986;2023-05-10T02:13:39;6.53;;;5.03;;
10309;SDS011;5200;43.236;27.986;2023-05-10T02:16:08;6.65;;;5.22;;
10309;SDS011;5200;43.236;27.986;2023-05-10T02:18:36;8.88;;;4.68;;
10309;SDS011;5200;43.236;27.986;2023-05-10T02:21:07;6.82;;;4.28;;
10309;SDS011;5200;43.236;27.986;2023-05-10T02:23:36;7.20;;;4.53;;
10309;SDS011;5200;43.236;27.986;2023-05-10T02:26:04;5.60;;;5.03;;
10309;SDS011;5200;43.236;27.986;2023-05-10T02:28:32;6.50;;;5.50;;
10309;SDS011;5200;43.236;27.986;2023-05-10T02:31:02;8.15;;;5.03;;
10309;SDS011;5200;43.236;27.986;2023-05-10T02:33:31;8.75;;;5.15;;
10309;SDS011;5200;43.236;27.986;2023-05-10T02:35:58;6.32;;;5.35;;
10309;SDS011;5200;43.236;27.986;2023-05-10T02:38:27;7.57;;;5.93;;
10309;SDS011;5200;43.236;27.986;2023-05-10T02:40:54;7.30;;;5.37;;
10309;SDS011;5200;43.236;27.986;2023-05-10T02:43:22;6.00;;;5.00;;
10309;SDS011;5200;43.236;27.986;2023-05-10T02:45:50;8.93;;;5.80;;
10309;SDS011;5200;43.236;27.986;2023-05-10T02:48:17;11.50;;;5.45;;
10309;SDS011;5200;43.236;27.986;2023-05-10T02:50:44;7.35;;;5.30;;
10309;SDS011;5200;43.236;27.986;2023-05-10T02:53:18;6.90;;;4.85;;
10309;SDS011;5200;43.236;27.986;2023-05-10T02:55:50;8.73;;;5.37;;
10309;SDS011;5200;43.236;27.986;2023-05-10T02:58:18;11.15;;;5.25;;
10309;SDS011;5200;43.236;27.986;2023-05-10T03:00:46;11.48;;;5.15;;
10309;SDS011;5200;43.236;27.986;2023-05-10T03:03:13;8.10;;;5.65;;
10309;SDS011;5200;43.236;27.986;2023-05-10T03:05:40;5.93;;;4.78;;
10309;SDS011;5200;43.236;27.986;2023-05-10T03:08:06;6.65;;;5.10;;
10309;SDS011;5200;43.236;27.986;2023-05-10T03:10:36;10.77;;;5.38;;
10309;SDS011;5200;43.236;27.986;2023-05-10T03:13:10;6.00;;;4.38;;
10309;SDS011;5200;43.236;27.986;2023-05-10T03:15:46;8.02;;;5.47;;
10309;SDS011;5200;43.236;27.986;2023-05-10T03:18:21;5.78;;;4.57;;
10309;SDS011;5200;43.236;27.986;2023-05-10T03:20:49;7.15;;;3.97;;
10309;SDS011;5200;43.236;27.986;2023-05-10T03:23:21;4.70;;;3.93;;
10309;SDS011;5200;43.236;27.986;2023-05-10T03:25:53;6.45;;;4.60;;
10309;SDS011;5200;43.236;27.986;2023-05-10T03:28:22;6.80;;;4.40;;
10309;SDS011;5200;43.236;27.986;2023-05-10T03:30:52;7.20;;;4.63;;
10309;SDS011;5200;43.236;27.986;2023-05-10T03:33:19;4.53;;;4.13;;
10309;SDS011;5200;43.236;27.986;2023-05-10T03:35:47;5.22;;;4.53;;
10309;SDS011;5200;43.236;27.986;2023-05-10T03:38:14;5.47;;;4.43;;
10309;SDS011;5200;43.236;27.986;2023-05-10T03:40:41;6.97;;;4.25;;
10309;SDS011;5200;43.236;27.986;2023-05-10T03:43:07;4.95;;;3.35;;
10309;SDS011;5200;43.236;27.986;2023-05-10T03:45:36;4.40;;;4.00;;
10309;SDS011;5200;43.236;27.986;2023-05-10T03:48:03;5.25;;;3.53;;
10309;SDS011;5200;43.236;27.986;2023-05-10T03:50:30;3.72;;;3.30;;
10309;SDS011;5200;43.236;27.986;2023-05-10T03:52:57;4.55;;;3.20;;
10309;SDS011;5200;43.236;27.986;2023-05-10T03:55:23;10.38;;;6.07;;
10309;SDS011;5200;43.236;27.986;2023-05-10T03:57:50;3.58;;;2.67;;
10309;SDS011;5200;43.236;27.986;2023-05-10T04:00:19;3.50;;;3.08;;
10309;SDS011;5200;43.236;27.986;2023-05-10T04:02:47;3.47;;;2.70;;
10309;SDS011;5200;43.236;27.986;2023-05-10T04:05:14;3.55;;;2.72;;
10309;SDS011;5200;43.236;27.986;2023-05-10T04:07:41;3.95;;;2.88;;
10309;SDS011;5200;43.236;27.986;2023-05-10T04:10:09;3.58;;;2.60;;
10309;SDS011;5200;43.236;27.986;2023-05-10T04:12:36;2.45;;;2.25;;
10309;SDS011;5200;43.236;27.986;2023-05-10T04:15:03;3.33;;;2.67;;
10309;SDS011;5200;43.236;27.986;2023-05-10T04:17:31;4.13;;;2.72;;
10309;SDS011;5200;43.236;27.986;2023-05-10T04:20:01;6.38;;;2.78;;
10309;SDS011;5200;43.236;27.986;2023-05-10T04:22:29;3.00;;;2.70;;
10309;SDS011;5200;43.236;27.986;2023-05-10T04:24:56;4.30;;;2.80;;
10309;SDS011;5200;43.236;27.986;2023-05-10T04:27:23;2.90;;;2.60;;
10309;SDS011;5200;43.236;27.986;2023-05-10T04:29:50;3.50;;;2.50;;
10309;SDS011;5200;43.236;27.986;2023-05-10T04:32:17;2.33;;;2.13;;
10309;SDS011;5200;43.236;27.986;2023-05-10T04:34:44;7.13;;;2.65;;
10309;SDS011;5200;43.236;27.986;2023-05-10T04:37:12;1.85;;;1.75;;
10309;SDS011;5200;43.236;27.986;2023-05-10T04:39:39;2.33;;;2.13;;
10309;SDS011;5200;43.236;27.986;2023-05-10T04:42:06;3.13;;;2.08;;
10309;SDS011;5200;43.236;27.986;2023-05-10T04:44:33;4.43;;;2.03;;
10309;SDS011;5200;43.236;27.986;2023-05-10T04:46:59;2.65;;;1.80;;
10309;SDS011;5200;43.236;27.986;2023-05-10T04:49:27;1.60;;;1.50;;
10309;SDS011;5200;43.236;27.986;2023-05-10T04:51:54;1.83;;;1.73;;
10309;SDS011;5200;43.236;27.986;2023-05-10T04:54:22;3.92;;;1.67;;
10309;SDS011;5200;43.236;27.986;2023-05-10T04:56:49;2.65;;;1.95;;
10309;SDS011;5200;43.236;27.986;2023-05-10T04:59:16;5.75;;;1.80;;
10309;SDS011;5200;43.236;27.986;2023-05-10T05:01:43;2.20;;;1.85;;
10309;SDS011;5200;43.236;27.986;2023-05-10T05:04:10;2.03;;;1.92;;
10309;SDS011;5200;43.236;27.986;2023-05-10T05:06:37;2.00;;;1.88;;
10309;SDS011;5200;43.236;27.986;2023-05-10T05:09:03;1.80;;;1.70;;
10309;SDS011;5200;43.236;27.986;2023-05-10T05:11:32;2.08;;;1.63;;
10309;SDS011;5200;43.236;27.986;2023-05-10T05:13:59;2.75;;;2.25;;
10309;SDS011;5200;43.236;27.986;2023-05-10T05:16:26;4.13;;;1.95;;
10309;SDS011;5200;43.236;27.986;2023-05-10T05:18:52;1.80;;;1.70;;
10309;SDS011;5200;43.236;27.986;2023-05-10T05:21:19;3.45;;;1.70;;
10309;SDS011;5200;43.236;27.986;2023-05-10T05:23:46;1.83;;;1.73;;
10309;SDS011;5200;43.236;27.986;2023-05-10T05:26:13;1.80;;;1.70;;
10309;SDS011;5200;43.236;27.986;2023-05-10T05:28:41;2.40;;;2.00;;
10309;SDS011;5200;43.236;27.986;2023-05-10T05:31:08;3.40;;;1.42;;
10309;SDS011;5200;43.236;27.986;2023-05-10T05:33:35;2.50;;;2.28;;
10309;SDS011;5200;43.236;27.986;2023-05-10T05:36:02;1.92;;;1.58;;
10309;SDS011;5200;43.236;27.986;2023-05-10T05:38:30;2.70;;;1.65;;
10309;SDS011;5200;43.236;27.986;2023-05-10T05:40:57;1.42;;;1.33;;
10309;SDS011;5200;43.236;27.986;2023-05-10T05:43:24;1.98;;;1.75;;
10309;SDS011;5200;43.236;27.986;2023-05-10T05:45:53;2.60;;;1.55;;
10309;SDS011;5200;43.236;27.986;2023-05-10T05:48:20;1.80;;;1.70;;
10309;SDS011;5200;43.236;27.986;2023-05-10T05:50:47;3.10;;;1.77;;
10309;SDS011;5200;43.236;27.986;2023-05-10T05:53:15;4.38;;;1.80;;
10309;SDS011;5200;43.236;27.986;2023-05-10T05:55:50;1.40;;;1.30;;
10309;SDS011;5200;43.236;27.986;2023-05-10T05:58:17;1.88;;;1.60;;
10309;SDS011;5200;43.236;27.986;2023-05-10T06:00:44;1.90;;;1.80;;
10309;SDS011;5200;43.236;27.986;2023-05-10T06:03:12;1.85;;;1.70;;
10309;SDS011;5200;43.236;27.986;2023-05-10T06:05:39;2.60;;;1.80;;
10309;SDS011;5200;43.236;27.986;2023-05-10T06:08:06;2.38;;;2.17;;
10309;SDS011;5200;43.236;27.986;2023-05-10T06:10:33;1.80;;;1.70;;
10309;SDS011;5200;43.236;27.986;2023-05-10T06:13:00;1.75;;;1.65;;
10309;SDS011;5200;43.236;27.986;2023-05-10T06:15:26;1.90;;;1.80;;
10309;SDS011;5200;43.236;27.986;2023-05-10T06:17:53;2.88;;;1.95;;
10309;SDS011;5200;43.236;27.986;2023-05-10T06:20:22;2.88;;;1.85;;
10309;SDS011;5200;43.236;27.986;2023-05-10T06:22:48;2.58;;;2.17;;
10309;SDS011;5200;43.236;27.986;2023-05-10T06:25:15;1.92;;;1.83;;
10309;SDS011;5200;43.236;27.986;2023-05-10T06:27:43;3.17;;;1.70;;
10309;SDS011;5200;43.236;27.986;2023-05-10T06:30:10;1.70;;;1.60;;
10309;SDS011;5200;43.236;27.986;2023-05-10T06:32:39;1.52;;;1.42;;
10309;SDS011;5200;43.236;27.986;2023-05-10T06:35:07;2.00;;;1.90;;
10309;SDS011;5200;43.236;27.986;2023-05-10T06:37:35;1.63;;;1.52;;
10309;SDS011;5200;43.236;27.986;2023-05-10T06:40:02;1.52;;;1.42;;
10309;SDS011;5200;43.236;27.986;2023-05-10T06:42:30;1.95;;;1.85;;
10309;SDS011;5200;43.236;27.986;2023-05-10T06:44:57;2.00;;;1.80;;
10309;SDS011;5200;43.236;27.986;2023-05-10T06:47:24;1.70;;;1.60;;
10309;SDS011;5200;43.236;27.986;2023-05-10T06:49:50;1.90;;;1.80;;
10309;SDS011;5200;43.236;27.986;2023-05-10T06:52:17;1.90;;;1.80;;
10309;SDS011;5200;43.236;27.986;2023-05-10T06:54:45;6.07;;;2.42;;
10309;SDS011;5200;43.236;27.986;2023-05-10T06:57:12;3.05;;;1.90;;
10309;SDS011;5200;43.236;27.986;2023-05-10T06:59:39;1.95;;;1.75;;
10309;SDS011;5200;43.236;27.986;2023-05-10T07:02:06;5.22;;;1.80;;
10309;SDS011;5200;43.236;27.986;2023-05-10T07:04:33;4.10;;;2.00;;
10309;SDS011;5200;43.236;27.986;2023-05-10T07:06:59;4.75;;;1.92;;
10309;SDS011;5200;43.236;27.986;2023-05-10T07:09:26;2.00;;;1.80;;
10309;SDS011;5200;43.236;27.986;2023-05-10T07:11:54;2.00;;;1.90;;
10309;SDS011;5200;43.236;27.986;2023-05-10T07:14:22;1.70;;;1.60;;
10309;SDS011;5200;43.236;27.986;2023-05-10T07:16:49;2.53;;;2.00;;
10309;SDS011;5200;43.236;27.986;2023-05-10T07:19:16;1.60;;;1.50;;
10309;SDS011;5200;43.236;27.986;2023-05-10T07:21:43;1.80;;;1.70;;
10309;SDS011;5200;43.236;27.986;2023-05-10T07:24:10;3.05;;;1.67;;
10309;SDS011;5200;43.236;27.986;2023-05-10T07:26:37;2.00;;;1.90;;
10309;SDS011;5200;43.236;27.986;2023-05-10T07:29:05;3.78;;;2.03;;
10309;SDS011;5200;43.236;27.986;2023-05-10T07:31:32;2.72;;;2.50;;
10309;SDS011;5200;43.236;27.986;2023-05-10T07:33:58;2.20;;;2.00;;
10309;SDS011;5200;43.236;27.986;2023-05-10T07:36:25;2.03;;;1.92;;
10309;SDS011;5200;43.236;27.986;2023-05-10T07:38:52;2.17;;;1.75;;
10309;SDS011;5200;43.236;27.986;2023-05-10T07:41:19;2.22;;;2.03;;
10309;SDS011;5200;43.236;27.986;2023-05-10T07:43:47;2.97;;;2.22;;
10309;SDS011;5200;43.236;27.986;2023-05-10T07:46:15;3.78;;;2.10;;
10309;SDS011;5200;43.236;27.986;2023-05-10T07:48:42;2.38;;;1.88;;
10309;SDS011;5200;43.236;27.986;2023-05-10T07:51:09;5.28;;;2.00;;
10309;SDS011;5200;43.236;27.986;2023-05-10T07:53:36;6.85;;;1.58;;
10309;SDS011;5200;43.236;27.986;2023-05-10T07:58:50;1.70;;;1.60;;
10309;SDS011;5200;43.236;27.986;2023-05-10T08:01:18;2.97;;;2.22;;
10309;SDS011;5200;43.236;27.986;2023-05-10T08:03:45;1.67;;;1.40;;
10309;SDS011;5200;43.236;27.986;2023-05-10T08:06:12;3.38;;;1.98;;
10309;SDS011;5200;43.236;27.986;2023-05-10T08:08:40;1.73;;;1.63;;
10309;SDS011;5200;43.236;27.986;2023-05-10T08:11:07;1.60;;;1.50;;
10309;SDS011;5200;43.236;27.986;2023-05-10T08:13:34;1.77;;;1.67;;
10309;SDS011;5200;43.236;27.986;2023-05-10T08:16:01;2.42;;;1.80;;
10309;SDS011;5200;43.236;27.986;2023-05-10T08:18:29;4.10;;;1.90;;
10309;SDS011;5200;43.236;27.986;2023-05-10T08:20:56;1.67;;;1.58;;
10309;SDS011;5200;43.236;27.986;2023-05-10T08:23:23;2.10;;;1.90;;
10309;SDS011;5200;43.236;27.986;2023-05-10T08:25:50;2.88;;;2.00;;
10309;SDS011;5200;43.236;27.986;2023-05-10T08:28:16;3.22;;;1.75;;
10309;SDS011;5200;43.236;27.986;2023-05-10T08:30:43;2.67;;;1.95;;
10309;SDS011;5200;43.236;27.986;2023-05-10T08:33:10;2.33;;;2.13;;
10309;SDS011;5200;43.236;27.986;2023-05-10T08:35:38;1.83;;;1.65;;
10309;SDS011;5200;43.236;27.986;2023-05-10T08:38:05;3.72;;;1.98;;
10309;SDS011;5200;43.236;27.986;2023-05-10T08:40:32;2.25;;;1.77;;
10309;SDS011;5200;43.236;27.986;2023-05-10T08:43:02;4.25;;;1.85;;
10309;SDS011;5200;43.236;27.986;2023-05-10T08:45:32;1.95;;;1.85;;
10309;SDS011;5200;43.236;27.986;2023-05-10T08:48:04;1.80;;;1.70;;
10309;SDS011;5200;43.236;27.986;2023-05-10T08:50:32;4.05;;;2.47;;
10309;SDS011;5200;43.236;27.986;2023-05-10T08:53:03;1.95;;;1.75;;
10309;SDS011;5200;43.236;27.986;2023-05-10T08:55:32;2.28;;;1.98;;
10309;SDS011;5200;43.236;27.986;2023-05-10T08:58:01;2.13;;;1.92;;
10309;SDS011;5200;43.236;27.986;2023-05-10T09:00:28;1.85;;;1.75;;
10309;SDS011;5200;43.236;27.986;2023-05-10T09:02:55;3.42;;;2.63;;
10309;SDS011;5200;43.236;27.986;2023-05-10T09:05:23;2.00;;;1.90;;
10309;SDS011;5200;43.236;27.986;2023-05-10T09:07:50;2.38;;;1.98;;
10309;SDS011;5200;43.236;27.986;2023-05-10T09:10:20;1.98;;;1.88;;
10309;SDS011;5200;43.236;27.986;2023-05-10T09:12:51;2.10;;;2.00;;
10309;SDS011;5200;43.236;27.986;2023-05-10T09:15:19;2.08;;;1.73;;
10309;SDS011;5200;43.236;27.986;2023-05-10T09:17:46;2.45;;;2.20;;
10309;SDS011;5200;43.236;27.986;2023-05-10T09:20:14;2.10;;;1.90;;
10309;SDS011;5200;43.236;27.986;2023-05-10T09:22:42;2.53;;;2.33;;
10309;SDS011;5200;43.236;27.986;2023-05-10T09:25:09;2.67;;;1.70;;
10309;SDS011;5200;43.236;27.986;2023-05-10T09:27:39;2.67;;;1.85;;
10309;SDS011;5200;43.236;27.986;2023-05-10T09:30:07;2.13;;;2.03;;
10309;SDS011;5200;43.236;27.986;2023-05-10T09:32:38;2.70;;;1.80;;
10309;SDS011;5200;43.236;27.986;2023-05-10T09:35:07;1.90;;;1.80;;
10309;SDS011;5200;43.236;27.986;2023-05-10T09:37:34;3.22;;;2.38;;
10309;SDS011;5200;43.236;27.986;2023-05-10T09:40:04;1.90;;;1.73;;
10309;SDS011;5200;43.236;27.986;2023-05-10T09:42:33;2.60;;;1.90;;
10309;SDS011;5200;43.236;27.986;2023-05-10T09:45:05;4.38;;;1.70;;
10309;SDS011;5200;43.236;27.986;2023-05-10T09:47:33;2.35;;;1.98;;
10309;SDS011;5200;43.236;27.986;2023-05-10T09:50:01;2.25;;;2.08;;
10309;SDS011;5200;43.236;27.986;2023-05-10T09:52:29;2.03;;;1.83;;
10309;SDS011;5200;43.236;27.986;2023-05-10T09:54:57;2.05;;;1.95;;
10309;SDS011;5200;43.236;27.986;2023-05-10T09:57:24;2.15;;;1.95;;
10309;SDS011;5200;43.236;27.986;2023-05-10T09:59:52;2.95;;;1.98;;
10309;SDS011;5200;43.236;27.986;2023-05-10T10:02:21;2.25;;;2.05;;
10309;SDS011;5200;43.236;27.986;2023-05-10T10:04:54;2.63;;;2.42;;
10309;SDS011;5200;43.236;27.986;2023-05-10T10:07:22;2.03;;;1.80;;
10309;SDS011;5200;43.236;27.986;2023-05-10T10:09:50;5.03;;;2.13;;
10309;SDS011;5200;43.236;27.986;2023-05-10T10:12:17;2.53;;;2.08;;
10309;SDS011;5200;43.236;27.986;2023-05-10T10:14:45;1.73;;;1.63;;
10309;SDS011;5200;43.236;27.986;2023-05-10T10:17:14;2.08;;;1.95;;
10309;SDS011;5200;43.236;27.986;2023-05-10T10:19:43;1.65;;;1.55;;
10309;SDS011;5200;43.236;27.986;2023-05-10T10:22:11;4.47;;;1.92;;
10309;SDS011;5200;43.236;27.986;2023-05-10T10:24:38;2.20;;;2.00;;
10309;SDS011;5200;43.236;27.986;2023-05-10T10:27:11;3.95;;;1.92;;
10309;SDS011;5200;43.236;27.986;2023-05-10T10:29:48;1.90;;;1.80;;
10309;SDS011;5200;43.236;27.986;2023-05-10T10:32:25;2.05;;;1.77;;
10309;SDS011;5200;43.236;27.986;2023-05-10T10:35:01;2.80;;;2.20;;
10309;SDS011;5200;43.236;27.986;2023-05-10T10:37:43;3.15;;;1.80;;
10309;SDS011;5200;43.236;27.986;2023-05-10T10:42:53;1.65;;;1.55;;
10309;SDS011;5200;43.236;27.986;2023-05-10T10:45:21;1.70;;;1.60;;
10309;SDS011;5200;43.236;27.986;2023-05-10T10:47:48;3.20;;;1.80;;
10309;SDS011;5200;43.236;27.986;2023-05-10T10:50:18;1.90;;;1.80;;
10309;SDS011;5200;43.236;27.986;2023-05-10T10:52:45;2.40;;;1.80;;
10309;SDS011;5200;43.236;27.986;2023-05-10T10:55:14;1.90;;;1.80;;
10309;SDS011;5200;43.236;27.986;2023-05-10T10:57:47;1.52;;;1.42;;
10309;SDS011;5200;43.236;27.986;2023-05-10T11:00:20;1.58;;;1.48;;
10309;SDS011;5200;43.236;27.986;2023-05-10T11:02:49;1.77;;;1.58;;
10309;SDS011;5200;43.236;27.986;2023-05-10T11:05:35;1.88;;;1.77;;
10309;SDS011;5200;43.236;27.986;2023-05-10T11:08:08;2.10;;;1.67;;
10309;SDS011;5200;43.236;27.986;2023-05-10T11:10:53;3.13;;;1.92;;
10309;SDS011;5200;43.236;27.986;2023-05-10T11:13:29;2.08;;;1.90;;
10309;SDS011;5200;43.236;27.986;2023-05-10T11:15:57;2.13;;;1.92;;
10309;SDS011;5200;43.236;27.986;2023-05-10T11:18:25;1.95;;;1.80;;
10309;SDS011;5200;43.236;27.986;2023-05-10T11:20:56;3.20;;;1.90;;
10309;SDS011;5200;43.236;27.986;2023-05-10T11:23:29;2.13;;;1.92;;
10309;SDS011;5200;43.236;27.986;2023-05-10T11:25:56;3.30;;;1.80;;
10309;SDS011;5200;43.236;27.986;2023-05-10T11:28:24;1.95;;;1.85;;
10309;SDS011;5200;43.236;27.986;2023-05-10T11:30:53;1.70;;;1.60;;
10309;SDS011;5200;43.236;27.986;2023-05-10T11:33:20;1.70;;;1.60;;
10309;SDS011;5200;43.236;27.986;2023-05-10T11:35:47;3.38;;;1.92;;
10309;SDS011;5200;43.236;27.986;2023-05-10T11:38:15;1.95;;;1.85;;
10309;SDS011;5200;43.236;27.986;2023-05-10T11:40:42;4.40;;;1.90;;
10309;SDS011;5200;43.236;27.986;2023-05-10T11:43:09;2.13;;;1.95;;
10309;SDS011;5200;43.236;27.986;2023-05-10T11:45:37;2.83;;;1.70;;
10309;SDS011;5200;43.236;27.986;2023-05-10T11:48:06;1.98;;;1.88;;
10309;SDS011;5200;43.236;27.986;2023-05-10T11:50:33;2.35;;;2.13;;
10309;SDS011;5200;43.236;27.986;2023-05-10T11:53:00;3.50;;;1.92;;
10309;SDS011;5200;43.236;27.986;2023-05-10T11:55:28;1.90;;;1.70;;
10309;SDS011;5200;43.236;27.986;2023-05-10T11:58:01;2.92;;;1.90;;
10309;SDS011;5200;43.236;27.986;2023-05-10T12:00:28;1.85;;;1.73;;
10309;SDS011;5200;43.236;27.986;2023-05-10T12:02:56;3.03;;;2.03;;
10309;SDS011;5200;43.236;27.986;2023-05-10T12:05:23;2.10;;;2.00;;
10309;SDS011;5200;43.236;27.986;2023-05-10T12:07:50;3.17;;;1.90;;
10309;SDS011;5200;43.236;27.986;2023-05-10T12:10:17;2.30;;;2.10;;
10309;SDS011;5200;43.236;27.986;2023-05-10T12:12:53;1.85;;;1.75;;
10309;SDS011;5200;43.236;27.986;2023-05-10T12:15:20;3.75;;;1.92;;
10309;SDS011;5200;43.236;27.986;2023-05-10T12:17:48;2.00;;;1.80;;
10309;SDS011;5200;43.236;27.986;2023-05-10T12:20:16;3.65;;;2.17;;
10309;SDS011;5200;43.236;27.986;2023-05-10T12:22:45;2.13;;;1.98;;
10309;SDS011;5200;43.236;27.986;2023-05-10T12:25:13;2.22;;;1.98;;
10309;SDS011;5200;43.236;27.986;2023-05-10T12:27:40;2.78;;;2.40;;
10309;SDS011;5200;43.236;27.986;2023-05-10T12:30:09;1.88;;;1.77;;
10309;SDS011;5200;43.236;27.986;2023-05-10T12:32:37;2.40;;;2.10;;
10309;SDS011;5200;43.236;27.986;2023-05-10T12:35:05;4.70;;;2.47;;
10309;SDS011;5200;43.236;27.986;2023-05-10T12:37:33;2.78;;;2.03;;
10309;SDS011;5200;43.236;27.986;2023-05-10T12:40:04;3.22;;;1.80;;
10309;SDS011;5200;43.236;27.986;2023-05-10T12:42:33;2.00;;;1.90;;
10309;SDS011;5200;43.236;27.986;2023-05-10T12:45:00;1.85;;;1.75;;
10309;SDS011;5200;43.236;27.986;2023-05-10T12:47:29;1.75;;;1.60;;
10309;SDS011;5200;43.236;27.986;2023-05-10T12:49:56;2.75;;;1.80;;
10309;SDS011;5200;43.236;27.986;2023-05-10T12:52:22;1.90;;;1.80;;
10309;SDS011;5200;43.236;27.986;2023-05-10T12:54:49;3.10;;;2.20;;
10309;SDS011;5200;43.236;27.986;2023-05-10T12:57:16;1.98;;;1.85;;
10309;SDS011;5200;43.236;27.986;2023-05-10T12:59:43;4.57;;;1.92;;
10309;SDS011;5200;43.236;27.986;2023-05-10T13:02:10;2.30;;;2.03;;
10309;SDS011;5200;43.236;27.986;2023-05-10T13:04:38;2.42;;;2.13;;
10309;SDS011;5200;43.236;27.986;2023-05-10T13:07:05;1.52;;;1.42;;
10309;SDS011;5200;43.236;27.986;2023-05-10T13:09:32;2.13;;;1.70;;
10309;SDS011;5200;43.236;27.986;2023-05-10T13:11:59;2.47;;;1.98;;
10309;SDS011;5200;43.236;27.986;2023-05-10T13:14:26;2.15;;;1.95;;
10309;SDS011;5200;43.236;27.986;2023-05-10T13:16:53;1.67;;;1.58;;
10309;SDS011;5200;43.236;27.986;2023-05-10T13:19:20;2.95;;;2.28;;
10309;SDS011;5200;43.236;27.986;2023-05-10T13:21:49;3.00;;;2.80;;
10309;SDS011;5200;43.236;27.986;2023-05-10T13:24:16;4.10;;;1.90;;
10309;SDS011;5200;43.236;27.986;2023-05-10T13:26:43;2.20;;;1.70;;
10309;SDS011;5200;43.236;27.986;2023-05-10T13:29:10;2.45;;;2.25;;
10309;SDS011;5200;43.236;27.986;2023-05-10T13:31:36;1.60;;;1.50;;
10309;SDS011;5200;43.236;27.986;2023-05-10T13:34:04;4.03;;;1.90;;
10309;SDS011;5200;43.236;27.986;2023-05-10T13:36:31;3.70;;;2.10;;
10309;SDS011;5200;43.236;27.986;2023-05-10T13:39:00;2.22;;;1.77;;
10309;SDS011;5200;43.236;27.986;2023-05-10T13:41:28;2.17;;;1.90;;
10309;SDS011;5200;43.236;27.986;2023-05-10T13:43:55;1.88;;;1.77;;
10309;SDS011;5200;43.236;27.986;2023-05-10T13:46:22;3.33;;;1.83;;
10309;SDS011;5200;43.236;27.986;2023-05-10T13:48:48;2.00;;;1.90;;
10309;SDS011;5200;43.236;27.986;2023-05-10T13:51:16;1.92;;;1.77;;
10309;SDS011;5200;43.236;27.986;2023-05-10T13:53:42;2.28;;;1.90;;
10309;SDS011;5200;43.236;27.986;2023-05-10T13:56:11;2.53;;;2.03;;
10309;SDS011;5200;43.236;27.986;2023-05-10T13:58:37;2.55;;;1.88;;
10309;SDS011;5200;43.236;27.986;2023-05-10T14:01:04;1.90;;;1.80;;
10309;SDS011;5200;43.236;27.986;2023-05-10T14:03:31;2.10;;;1.90;;
10309;SDS011;5200;43.236;27.986;2023-05-10T14:05:58;2.63;;;2.00;;
10309;SDS011;5200;43.236;27.986;2023-05-10T14:08:25;1.98;;;1.83;;
10309;SDS011;5200;43.236;27.986;2023-05-10T14:10:53;2.03;;;1.80;;
10309;SDS011;5200;43.236;27.986;2023-05-10T14:13:22;2.03;;;1.80;;
10309;SDS011;5200;43.236;27.986;2023-05-10T14:15:50;2.28;;;2.08;;
10309;SDS011;5200;43.236;27.986;2023-05-10T14:18:17;3.25;;;1.88;;
10309;SDS011;5200;43.236;27.986;2023-05-10T14:20:43;3.35;;;1.92;;
10309;SDS011;5200;43.236;27.986;2023-05-10T14:23:10;4.75;;;2.10;;
10309;SDS011;5200;43.236;27.986;2023-05-10T14:25:37;2.42;;;1.92;;
10309;SDS011;5200;43.236;27.986;2023-05-10T14:28:05;4.53;;;1.90;;
10309;SDS011;5200;43.236;27.986;2023-05-10T14:30:33;1.88;;;1.73;;
10309;SDS011;5200;43.236;27.986;2023-05-10T14:33:00;2.75;;;1.88;;
10309;SDS011;5200;43.236;27.986;2023-05-10T14:35:28;2.65;;;1.80;;
10309;SDS011;5200;43.236;27.986;2023-05-10T14:37:56;3.30;;;1.83;;
10309;SDS011;5200;43.236;27.986;2023-05-10T14:40:23;3.65;;;1.88;;
10309;SDS011;5200;43.236;27.986;2023-05-10T14:42:50;2.15;;;1.95;;
10309;SDS011;5200;43.236;27.986;2023-05-10T14:45:18;1.98;;;1.77;;
10309;SDS011;5200;43.236;27.986;2023-05-10T14:47:51;2.20;;;2.00;;
10309;SDS011;5200;43.236;27.986;2023-05-10T14:50:18;2.42;;;2.22;;
10309;SDS011;5200;43.236;27.986;2023-05-10T14:52:46;1.70;;;1.48;;
10309;SDS011;5200;43.236;27.986;2023-05-10T14:55:12;2.80;;;1.92;;
10309;SDS011;5200;43.236;27.986;2023-05-10T14:57:39;2.92;;;1.90;;
10309;SDS011;5200;43.236;27.986;2023-05-10T15:00:06;2.20;;;2.00;;